Airport ICAO


07:56 UTC

25°C

Clear skies


An affordable passengers' Moving Map for your aircraft. Made for the iPad and the iPhone
More information here

LFMC Le Cannet


Le Luc FRANCE   VFR CAVOK


METAR LFMC 210700Z 00000KT CAVOK 25/19 Q1017 0h56min





NOTAMS

OPEN